Time;durP1;ratioP1;P1;durP2;ratioP2;P2;SDS_P1;SDS_P2;PMS_P1;PMS_P2;Temp;Humidity;BMP_temperature;BMP_pressure;BME280_temperature;BME280_humidity;BME280_pressure;Samples;Min_cycle;Max_cycle;Signal;HPM_P1;HPM_P2
2023/12/18 00:01:12;;;;;;;4.30;3.90;;;21.30;56.70;;;;;;5097159;28;20668;-69
2023/12/18 00:03:37;;;;;;;5.07;4.47;;;21.30;56.70;;;;;;5097088;28;20439;-68
2023/12/18 00:06:03;;;;;;;5.27;4.10;;;21.20;56.60;;;;;;5095597;28;20205;-69
2023/12/18 00:08:29;;;;;;;4.10;3.70;;;21.30;56.70;;;;;;5095476;28;20289;-68
2023/12/18 00:10:55;;;;;;;4.60;3.63;;;21.20;56.60;;;;;;5096913;28;20489;-69
2023/12/18 00:13:20;;;;;;;5.50;4.30;;;21.20;56.60;;;;;;5096943;28;20193;-69
2023/12/18 00:15:46;;;;;;;6.23;4.33;;;21.30;56.60;;;;;;5096840;28;20173;-69
2023/12/18 00:18:11;;;;;;;5.10;3.77;;;21.30;56.70;;;;;;5096460;28;20204;-68
2023/12/18 00:20:37;;;;;;;4.27;3.87;;;21.30;56.60;;;;;;5096952;28;20185;-69
2023/12/18 00:23:03;;;;;;;4.23;3.83;;;21.30;56.60;;;;;;5096778;28;20180;-69
2023/12/18 00:25:29;;;;;;;4.53;4.00;;;21.30;56.70;;;;;;5096817;28;20223;-68
2023/12/18 00:27:55;;;;;;;6.30;4.20;;;21.30;56.70;;;;;;5096878;28;20190;-68
2023/12/18 00:30:20;;;;;;;3.73;3.30;;;21.20;56.60;;;;;;5096725;28;20166;-68
2023/12/18 00:32:46;;;;;;;3.93;3.60;;;21.20;56.60;;;;;;5096922;28;20932;-69
2023/12/18 00:35:12;;;;;;;4.30;3.80;;;21.20;56.60;;;;;;5096598;28;20174;-68
2023/12/18 00:37:38;;;;;;;4.10;3.40;;;21.30;56.70;;;;;;5092482;28;20259;-68
2023/12/18 00:40:03;;;;;;;5.60;4.60;;;21.20;56.60;;;;;;5092477;28;20411;-68
2023/12/18 00:42:29;;;;;;;4.00;3.60;;;21.20;56.60;;;;;;5093471;28;20578;-68
2023/12/18 00:44:55;;;;;;;4.47;4.07;;;21.20;56.60;;;;;;5093493;28;20455;-68
2023/12/18 00:47:20;;;;;;;4.50;4.10;;;21.20;56.60;;;;;;5091750;28;20193;-69
2023/12/18 00:49:46;;;;;;;3.60;3.30;;;21.20;56.60;;;;;;5093688;28;20231;-67
2023/12/18 00:52:12;;;;;;;4.20;3.60;;;21.20;56.60;;;;;;5093464;28;20589;-69
2023/12/18 00:54:37;;;;;;;4.47;4.07;;;21.20;56.60;;;;;;5093399;28;20276;-69
2023/12/18 00:57:03;;;;;;;4.07;3.67;;;21.20;56.60;;;;;;5093232;28;20697;-68
2023/12/18 00:59:28;;;;;;;3.87;3.47;;;21.30;56.70;;;;;;5093323;28;20208;-68
2023/12/18 01:01:54;;;;;;;4.17;3.77;;;21.20;56.60;;;;;;5092977;28;20170;-69
2023/12/18 01:04:19;;;;;;;5.10;4.30;;;21.20;56.60;;;;;;5092820;28;20619;-69
2023/12/18 01:06:45;;;;;;;3.73;3.40;;;21.20;56.60;;;;;;5092870;28;20197;-68
2023/12/18 01:09:12;;;;;;;3.93;3.60;;;21.20;56.60;;;;;;5092859;28;20166;-69
2023/12/18 01:11:38;;;;;;;3.90;3.60;;;21.20;56.60;;;;;;5092882;28;20186;-68
2023/12/18 01:14:04;;;;;;;4.70;4.03;;;21.20;56.60;;;;;;5092635;28;20458;-68
2023/12/18 01:16:30;;;;;;;5.00;4.20;;;21.20;56.60;;;;;;5092495;28;20672;-69
2023/12/18 01:18:56;;;;;;;4.93;4.07;;;21.20;56.60;;;;;;5092484;28;20192;-69
2023/12/18 01:21:21;;;;;;;4.87;4.43;;;21.20;56.60;;;;;;5092671;28;20781;-69
2023/12/18 01:23:47;;;;;;;5.20;4.70;;;21.20;56.60;;;;;;5092563;28;20201;-69
2023/12/18 01:26:12;;;;;;;3.73;3.20;;;21.20;56.60;;;;;;5092456;28;20221;-69
2023/12/18 01:28:40;;;;;;;4.00;3.60;;;21.20;56.60;;;;;;5092226;28;20719;-69
2023/12/18 01:31:07;;;;;;;4.03;3.73;;;21.20;56.60;;;;;;5091643;28;20177;-68
2023/12/18 01:33:33;;;;;;;5.97;3.83;;;21.20;56.60;;;;;;5091954;28;20419;-68
2023/12/18 01:35:59;;;;;;;4.10;3.00;;;21.20;56.60;;;;;;5091669;28;20427;-69
2023/12/18 01:38:24;;;;;;;4.10;3.67;;;21.20;56.70;;;;;;5090452;28;20196;-69
2023/12/18 01:40:50;;;;;;;3.90;3.27;;;21.20;56.60;;;;;;5091764;28;20549;-68
2023/12/18 01:43:26;;;;;;;4.60;3.80;;;21.20;56.60;;;;;;5091632;28;20346;-68
2023/12/18 01:45:58;;;;;;;3.63;3.30;;;21.20;56.60;;;;;;5091812;28;20258;-69
2023/12/18 01:48:25;;;;;;;4.30;3.90;;;21.20;56.70;;;;;;5091362;28;20395;-69
2023/12/18 01:50:53;;;;;;;3.73;3.33;;;21.20;56.70;;;;;;5091599;28;20449;-69
2023/12/18 01:53:19;;;;;;;3.90;3.60;;;21.10;56.60;;;;;;5090373;28;20422;-69
2023/12/18 01:55:45;;;;;;;3.40;3.10;;;21.10;56.60;;;;;;5090339;28;20439;-67
2023/12/18 01:58:13;;;;;;;4.37;3.37;;;21.20;56.70;;;;;;5091742;28;20518;-68
2023/12/18 02:00:39;;;;;;;3.70;3.23;;;21.10;57.10;;;;;;5091597;28;20169;-67
2023/12/18 02:03:06;;;;;;;3.80;3.30;;;21.10;56.60;;;;;;5091659;28;20915;-69
2023/12/18 02:05:32;;;;;;;3.27;3.00;;;21.10;56.60;;;;;;5091827;28;20424;-69
2023/12/18 02:07:58;;;;;;;3.90;3.60;;;21.10;56.60;;;;;;5091535;28;20914;-68
2023/12/18 02:10:24;;;;;;;4.03;3.63;;;21.10;56.60;;;;;;5091424;28;20970;-69
2023/12/18 02:12:50;;;;;;;3.73;3.43;;;21.10;56.60;;;;;;5091361;28;20408;-69
2023/12/18 02:15:16;;;;;;;3.80;3.40;;;21.10;56.60;;;;;;5090294;28;20531;-69
2023/12/18 02:17:41;;;;;;;3.60;3.30;;;21.10;56.60;;;;;;5091101;28;20212;-69
2023/12/18 02:20:08;;;;;;;3.60;3.27;;;21.10;56.60;;;;;;5091277;28;20543;-70
2023/12/18 02:22:44;;;;;;;3.87;3.57;;;21.10;56.60;;;;;;5091571;28;20299;-67
2023/12/18 02:25:10;;;;;;;4.20;3.27;;;21.10;56.60;;;;;;5091511;28;20504;-69
2023/12/18 02:27:37;;;;;;;4.87;4.10;;;21.10;56.60;;;;;;5091025;28;20458;-68
2023/12/18 02:30:03;;;;;;;4.67;3.60;;;21.10;56.60;;;;;;5091107;28;20586;-68
2023/12/18 02:32:28;;;;;;;5.60;3.40;;;21.10;56.60;;;;;;5091155;28;20435;-69
2023/12/18 02:34:54;;;;;;;4.00;3.30;;;21.20;56.70;;;;;;5090888;28;20205;-68
2023/12/18 02:37:19;;;;;;;4.13;3.50;;;21.10;56.60;;;;;;5090788;28;20190;-69
2023/12/18 02:39:45;;;;;;;3.57;3.27;;;21.10;56.60;;;;;;5091510;28;20177;-67
2023/12/18 02:42:11;;;;;;;3.50;3.20;;;21.10;56.60;;;;;;5089523;28;20322;-69
2023/12/18 02:44:36;;;;;;;3.43;3.10;;;21.20;56.70;;;;;;5090923;28;20208;-68
2023/12/18 02:47:02;;;;;;;3.60;3.20;;;21.10;56.60;;;;;;5091049;28;20251;-68
2023/12/18 02:49:28;;;;;;;4.00;3.63;;;21.20;56.70;;;;;;5090833;28;20166;-68
2023/12/18 02:51:53;;;;;;;3.73;3.43;;;21.20;56.70;;;;;;5091024;28;20176;-68
2023/12/18 02:54:19;;;;;;;4.23;2.87;;;21.10;56.60;;;;;;5091040;28;20181;-68
2023/12/18 02:56:44;;;;;;;3.70;3.40;;;21.10;56.60;;;;;;5090613;28;20307;-69
2023/12/18 02:59:10;;;;;;;3.83;3.50;;;21.10;56.60;;;;;;5090721;28;20170;-68
2023/12/18 03:01:35;;;;;;;3.90;3.57;;;21.10;56.60;;;;;;5090331;28;20262;-69
2023/12/18 03:04:01;;;;;;;3.57;3.23;;;21.10;57.10;;;;;;5090531;28;20706;-69
2023/12/18 03:06:28;;;;;;;3.93;3.47;;;21.10;56.60;;;;;;5090560;28;20205;-69
2023/12/18 03:08:54;;;;;;;3.57;3.27;;;21.10;56.60;;;;;;5090679;28;20173;-69
2023/12/18 03:11:19;;;;;;;4.00;3.50;;;21.10;56.60;;;;;;5090639;28;20898;-68
2023/12/18 03:13:45;;;;;;;4.00;3.60;;;21.10;56.60;;;;;;5090647;28;20205;-69
2023/12/18 03:16:10;;;;;;;3.60;3.30;;;21.10;56.60;;;;;;5090436;28;20193;-68
2023/12/18 03:18:36;;;;;;;4.33;3.20;;;21.10;56.60;;;;;;5090387;28;20272;-69
2023/12/18 03:21:02;;;;;;;4.47;4.07;;;21.10;56.60;;;;;;5090690;28;20173;-68
2023/12/18 03:23:27;;;;;;;3.30;2.80;;;21.10;56.60;;;;;;5090494;28;21016;-69
2023/12/18 03:25:53;;;;;;;3.27;2.97;;;21.10;56.60;;;;;;5090387;28;20172;-68
2023/12/18 03:28:18;;;;;;;3.50;3.20;;;21.10;56.70;;;;;;5090827;28;20174;-68
2023/12/18 03:30:44;;;;;;;3.10;2.80;;;21.10;56.70;;;;;;5090404;28;20169;-69
2023/12/18 03:33:10;;;;;;;3.30;3.03;;;21.10;56.60;;;;;;5090340;28;20170;-69
2023/12/18 03:35:35;;;;;;;2.80;2.60;;;21.10;56.60;;;;;;5090286;28;20433;-69
2023/12/18 03:38:01;;;;;;;3.43;3.13;;;21.10;56.70;;;;;;5090223;28;20201;-68
2023/12/18 03:40:27;;;;;;;4.43;3.50;;;21.10;56.60;;;;;;5088887;28;20181;-69
2023/12/18 03:42:52;;;;;;;3.70;3.30;;;21.10;56.70;;;;;;5090305;28;20173;-68
2023/12/18 03:45:18;;;;;;;4.00;3.60;;;21.10;56.70;;;;;;5090171;28;20258;-68
2023/12/18 03:47:43;;;;;;;3.70;3.40;;;21.10;56.60;;;;;;5083708;28;20194;-69
2023/12/18 03:50:10;;;;;;;3.90;2.67;;;21.10;56.70;;;;;;5088357;28;20524;-68
2023/12/18 03:52:35;;;;;;;3.50;2.80;;;21.10;56.60;;;;;;5077369;28;20166;-69
2023/12/18 03:55:01;;;;;;;3.53;2.90;;;21.10;56.60;;;;;;5068212;28;20954;-69
2023/12/18 03:57:27;;;;;;;3.30;2.90;;;21.10;56.60;;;;;;5069053;28;20187;-69
2023/12/18 03:59:52;;;;;;;2.90;2.60;;;21.10;56.60;;;;;;5069807;28;20680;-68
2023/12/18 04:02:18;;;;;;;3.37;2.90;;;21.10;56.60;;;;;;5069959;28;20272;-69
2023/12/18 04:04:44;;;;;;;3.37;3.07;;;21.10;56.60;;;;;;5069815;28;20232;-68
2023/12/18 04:07:10;;;;;;;2.97;2.77;;;21.10;56.60;;;;;;5068441;28;20197;-68
2023/12/18 04:09:38;;;;;;;3.90;3.00;;;21.10;56.60;;;;;;5070126;28;20400;-67
2023/12/18 04:12:04;;;;;;;3.07;2.77;;;21.10;56.60;;;;;;5070615;28;20633;-69
2023/12/18 04:14:29;;;;;;;3.87;3.47;;;21.10;56.60;;;;;;5073721;28;20411;-69
2023/12/18 04:16:55;;;;;;;4.20;3.77;;;21.10;56.60;;;;;;5073700;28;20202;-69
2023/12/18 04:19:20;;;;;;;3.40;3.10;;;21.10;56.60;;;;;;5073571;28;20178;-69
2023/12/18 04:21:46;;;;;;;3.40;3.10;;;21.10;56.60;;;;;;5072092;28;20186;-68
2023/12/18 04:24:12;;;;;;;3.20;2.83;;;21.10;56.60;;;;;;5073492;28;20208;-68
2023/12/18 04:26:37;;;;;;;3.60;3.13;;;21.10;56.60;;;;;;5073769;28;20194;-69
2023/12/18 04:29:03;;;;;;;3.40;2.63;;;21.10;56.60;;;;;;5073384;28;20220;-69
2023/12/18 04:31:28;;;;;;;3.87;3.47;;;21.10;56.60;;;;;;5073449;28;20170;-69
2023/12/18 04:33:54;;;;;;;3.23;2.93;;;21.00;56.60;;;;;;5073159;28;20599;-68
2023/12/18 04:36:20;;;;;;;3.43;3.13;;;21.10;56.60;;;;;;5073272;28;20281;-68
2023/12/18 04:38:47;;;;;;;4.40;4.10;;;21.10;56.70;;;;;;5073156;28;20422;-68
2023/12/18 04:41:22;;;;;;;2.90;2.43;;;21.00;56.60;;;;;;5071752;28;20558;-69
2023/12/18 04:43:48;;;;;;;3.40;3.10;;;21.10;56.60;;;;;;5073114;28;20475;-69
2023/12/18 04:46:14;;;;;;;3.40;2.67;;;21.00;56.60;;;;;;5072985;28;20417;-68
2023/12/18 04:48:41;;;;;;;2.97;2.77;;;21.10;56.70;;;;;;5072982;28;20474;-68
2023/12/18 04:51:07;;;;;;;3.27;2.97;;;21.00;56.60;;;;;;5071659;28;20408;-68
2023/12/18 04:53:36;;;;;;;3.63;3.30;;;21.10;56.60;;;;;;5072880;28;20424;-69
2023/12/18 04:56:02;;;;;;;3.70;3.07;;;21.10;56.70;;;;;;5072840;28;20724;-69
2023/12/18 04:58:27;;;;;;;3.13;2.57;;;21.10;56.70;;;;;;5073110;28;20408;-69
2023/12/18 05:00:53;;;;;;;3.80;3.40;;;21.00;56.60;;;;;;5072952;28;20596;-69
2023/12/18 05:03:18;;;;;;;3.40;2.67;;;21.00;56.60;;;;;;5072660;28;20767;-69
2023/12/18 05:05:44;;;;;;;3.50;3.20;;;21.00;56.60;;;;;;5072937;28;20166;-68
2023/12/18 05:08:09;;;;;;;3.03;2.73;;;21.00;56.60;;;;;;5072800;28;20249;-68
2023/12/18 05:10:35;;;;;;;2.93;2.40;;;21.00;56.60;;;;;;5072620;28;20704;-69
2023/12/18 05:13:01;;;;;;;3.57;2.80;;;21.10;56.70;;;;;;5072710;28;20170;-68
2023/12/18 05:15:26;;;;;;;3.63;2.77;;;21.10;56.70;;;;;;5071243;28;20649;-69
2023/12/18 05:17:52;;;;;;;3.30;3.00;;;21.10;56.70;;;;;;5072071;28;20212;-68
2023/12/18 05:20:17;;;;;;;3.83;3.50;;;21.10;56.70;;;;;;5072599;28;20166;-68
2023/12/18 05:22:43;;;;;;;2.90;2.70;;;21.10;56.70;;;;;;5072190;28;20171;-68
2023/12/18 05:25:12;;;;;;;2.67;2.43;;;21.10;56.60;;;;;;5072740;28;20201;-69
2023/12/18 05:27:37;;;;;;;4.30;3.13;;;21.10;56.60;;;;;;5072284;28;20201;-68
2023/12/18 05:30:03;;;;;;;6.20;4.47;;;21.10;56.60;;;;;;5072386;28;20813;-69
2023/12/18 05:32:29;;;;;;;5.03;4.60;;;21.10;55.80;;;;;;5072085;28;20178;-68
2023/12/18 05:34:54;;;;;;;5.37;4.87;;;21.10;55.20;;;;;;5072215;28;20412;-69
2023/12/18 05:37:21;;;;;;;5.03;4.40;;;21.10;54.60;;;;;;5072084;28;20541;-69
2023/12/18 05:39:46;;;;;;;4.90;4.23;;;21.10;54.50;;;;;;5072092;28;20181;-70
2023/12/18 05:42:14;;;;;;;4.83;4.43;;;21.10;54.70;;;;;;5072221;28;20911;-68
2023/12/18 05:44:40;;;;;;;4.30;3.80;;;21.10;54.80;;;;;;5072105;28;20224;-68
2023/12/18 05:47:05;;;;;;;4.10;3.23;;;21.00;54.90;;;;;;5072151;28;21010;-68
2023/12/18 05:49:31;;;;;;;4.43;3.80;;;21.00;55.00;;;;;;5072188;28;20247;-69
2023/12/18 05:51:57;;;;;;;4.80;4.10;;;21.00;54.90;;;;;;5071783;28;20224;-68
2023/12/18 05:54:22;;;;;;;4.23;3.60;;;21.00;54.90;;;;;;5071815;28;20174;-69
2023/12/18 05:56:48;;;;;;;3.40;3.10;;;21.00;55.00;;;;;;5071546;28;20201;-68
2023/12/18 05:59:14;;;;;;;4.70;4.30;;;21.00;55.10;;;;;;5071581;28;20166;-69
2023/12/18 06:01:39;;;;;;;4.87;3.50;;;21.00;55.20;;;;;;5071471;28;20192;-69
2023/12/18 06:04:05;;;;;;;3.43;2.83;;;21.00;55.20;;;;;;5071441;28;20209;-68
2023/12/18 06:06:30;;;;;;;3.33;2.60;;;21.00;55.20;;;;;;5071399;28;20284;-69
2023/12/18 06:08:56;;;;;;;3.27;2.90;;;21.00;55.30;;;;;;5071713;28;20552;-68
2023/12/18 06:11:21;;;;;;;4.40;3.13;;;21.00;55.30;;;;;;5072257;28;20252;-68
2023/12/18 06:13:47;;;;;;;3.60;3.23;;;21.00;55.40;;;;;;5072658;28;20174;-70
2023/12/18 06:16:13;;;;;;;4.40;3.90;;;21.00;55.50;;;;;;5071858;28;20653;-68
2023/12/18 06:18:38;;;;;;;3.43;2.90;;;21.00;55.50;;;;;;5071691;28;20182;-68
2023/12/18 06:21:06;;;;;;;3.60;3.30;;;21.00;55.60;;;;;;5070522;28;20190;-68
2023/12/18 06:23:32;;;;;;;4.43;3.87;;;21.00;55.60;;;;;;5071897;28;20209;-68
2023/12/18 06:25:57;;;;;;;3.27;3.00;;;21.00;55.70;;;;;;5071765;28;20432;-68
2023/12/18 06:28:23;;;;;;;3.30;3.00;;;21.00;55.70;;;;;;5071506;28;20405;-67
2023/12/18 06:30:48;;;;;;;3.37;3.07;;;21.00;55.90;;;;;;5071310;28;20579;-68
2023/12/18 06:33:14;;;;;;;3.60;3.30;;;21.00;56.00;;;;;;5071313;28;20190;-68
2023/12/18 06:35:41;;;;;;;3.20;2.90;;;21.00;56.10;;;;;;5071637;28;20170;-68
2023/12/18 06:38:06;;;;;;;3.33;3.03;;;21.10;56.20;;;;;;5071748;28;20171;-67
2023/12/18 06:40:32;;;;;;;3.13;2.83;;;21.10;56.20;;;;;;5072262;28;20416;-67
2023/12/18 06:42:58;;;;;;;3.50;3.20;;;21.10;56.20;;;;;;5071866;28;20220;-67
2023/12/18 06:45:23;;;;;;;3.30;3.00;;;21.10;56.20;;;;;;5071934;28;20206;-68
2023/12/18 06:47:49;;;;;;;3.57;2.70;;;21.10;56.20;;;;;;5071299;28;20255;-68
2023/12/18 06:50:15;;;;;;;3.40;3.10;;;21.10;56.10;;;;;;5070965;28;20178;-67
2023/12/18 06:52:41;;;;;;;3.60;3.30;;;21.20;56.20;;;;;;5082721;28;20173;-68
2023/12/18 06:55:07;;;;;;;3.40;2.70;;;21.20;56.20;;;;;;5090621;28;20197;-68
2023/12/18 06:57:33;;;;;;;3.63;3.20;;;21.20;56.20;;;;;;5088123;28;20436;-67
2023/12/18 06:59:58;;;;;;;4.83;3.13;;;21.20;56.10;;;;;;5089934;28;20415;-68
2023/12/18 07:02:26;;;;;;;4.00;3.20;;;21.20;56.10;;;;;;5089695;28;20475;-68
2023/12/18 07:04:52;;;;;;;2.90;2.50;;;21.30;56.20;;;;;;5089924;28;20192;-67
2023/12/18 07:07:18;;;;;;;2.90;2.60;;;21.30;56.20;;;;;;5091522;28;20965;-68
2023/12/18 07:09:44;;;;;;;2.70;2.50;;;21.30;56.10;;;;;;5091113;28;20294;-68
2023/12/18 07:12:09;;;;;;;3.07;2.77;;;21.30;56.10;;;;;;5091927;28;20832;-67
2023/12/18 07:14:36;;;;;;;3.03;2.73;;;21.30;56.10;;;;;;5091907;28;20736;-67
2023/12/18 07:17:02;;;;;;;3.10;2.80;;;21.30;56.10;;;;;;5091421;28;20193;-68
2023/12/18 07:19:27;;;;;;;3.30;2.73;;;21.30;56.10;;;;;;5090080;28;20424;-68
2023/12/18 07:21:53;;;;;;;5.20;3.23;;;21.30;56.10;;;;;;5091312;28;20173;-67
2023/12/18 07:24:18;;;;;;;2.90;2.70;;;21.30;56.10;;;;;;5091609;28;20675;-68
2023/12/18 07:26:44;;;;;;;3.10;2.83;;;21.30;56.10;;;;;;5091281;28;20189;-67
2023/12/18 07:29:09;;;;;;;3.63;3.03;;;21.30;56.10;;;;;;5091554;28;20178;-67
2023/12/18 07:31:35;;;;;;;2.90;2.60;;;21.30;56.10;;;;;;5091289;28;20189;-68
2023/12/18 07:34:01;;;;;;;3.13;2.83;;;21.30;56.10;;;;;;5091440;28;20600;-66
2023/12/18 07:36:26;;;;;;;2.90;2.67;;;21.30;56.10;;;;;;5090835;28;20200;-69
2023/12/18 07:38:52;;;;;;;4.00;3.30;;;21.30;56.10;;;;;;5091252;28;20245;-68
2023/12/18 07:41:18;;;;;;;3.47;2.80;;;21.30;56.10;;;;;;5091115;28;20628;-67
2023/12/18 07:43:45;;;;;;;3.30;2.70;;;21.30;56.10;;;;;;5091246;28;20269;-68
2023/12/18 07:46:19;;;;;;;4.83;2.60;;;21.40;56.20;;;;;;5092410;28;20427;-68
2023/12/18 07:48:48;;;;;;;2.77;2.30;;;21.30;56.10;;;;;;5095761;28;20407;-68
2023/12/18 07:51:14;;;;;;;2.60;2.20;;;21.40;56.10;;;;;;5095155;28;20411;-66
2023/12/18 07:53:40;;;;;;;2.93;2.63;;;21.40;56.20;;;;;;5095405;28;20422;-68
2023/12/18 07:56:06;;;;;;;3.63;3.10;;;21.40;56.20;;;;;;5095772;28;21242;-68
2023/12/18 07:58:31;;;;;;;3.50;2.70;;;21.40;56.20;;;;;;5095227;28;20181;-68
2023/12/18 08:00:57;;;;;;;2.80;2.50;;;21.40;56.20;;;;;;5095279;28;20418;-69
2023/12/18 08:03:23;;;;;;;2.70;2.50;;;21.40;56.10;;;;;;5095217;28;20181;-68
2023/12/18 08:05:48;;;;;;;3.00;2.63;;;21.40;56.10;;;;;;5095214;28;20547;-69
2023/12/18 08:08:14;;;;;;;2.30;2.10;;;21.40;56.10;;;;;;5095045;28;20181;-68
2023/12/18 08:10:40;;;;;;;3.37;2.87;;;21.40;56.10;;;;;;5095292;28;20633;-68
2023/12/18 08:13:05;;;;;;;2.50;2.30;;;21.40;56.10;;;;;;5094795;28;20185;-68
2023/12/18 08:15:31;;;;;;;3.67;2.90;;;21.40;56.10;;;;;;5093709;28;20208;-67
2023/12/18 08:17:57;;;;;;;3.30;2.50;;;21.40;56.60;;;;;;5094390;28;20217;-69
2023/12/18 08:20:23;;;;;;;3.27;2.90;;;21.40;56.10;;;;;;5094690;28;20971;-68
2023/12/18 08:22:48;;;;;;;2.73;2.33;;;21.40;56.10;;;;;;5094684;28;20181;-68
2023/12/18 08:25:14;;;;;;;3.20;2.87;;;21.40;56.10;;;;;;5094545;28;20208;-68
2023/12/18 08:27:40;;;;;;;2.70;2.50;;;21.40;56.10;;;;;;5094609;28;20251;-68
2023/12/18 08:30:09;;;;;;;3.30;3.00;;;21.40;56.10;;;;;;5093117;28;20182;-68
2023/12/18 08:32:34;;;;;;;2.40;2.20;;;21.40;56.10;;;;;;5094440;28;20408;-68
2023/12/18 08:35:00;;;;;;;3.20;2.90;;;21.40;56.10;;;;;;5094653;28;20426;-68
2023/12/18 08:37:29;;;;;;;3.40;2.83;;;21.40;56.20;;;;;;5094084;28;20432;-68
2023/12/18 08:39:55;;;;;;;2.87;2.60;;;21.40;56.10;;;;;;5094383;28;20209;-68
2023/12/18 08:42:22;;;;;;;3.10;2.80;;;21.40;56.10;;;;;;5092851;28;20780;-68
2023/12/18 08:44:48;;;;;;;2.70;2.50;;;21.40;56.10;;;;;;5094772;28;20483;-68
2023/12/18 08:47:14;;;;;;;3.17;2.20;;;21.40;56.10;;;;;;5094005;28;20463;-68
2023/12/18 08:49:39;;;;;;;2.80;2.30;;;21.40;56.10;;;;;;5094082;28;20169;-68
2023/12/18 08:52:05;;;;;;;2.60;2.40;;;21.40;56.20;;;;;;5094209;28;20174;-68
2023/12/18 08:54:31;;;;;;;3.43;2.83;;;21.50;56.20;;;;;;5094652;28;20177;-68
2023/12/18 08:56:56;;;;;;;2.50;2.30;;;21.50;56.80;;;;;;5094904;28;20197;-68
2023/12/18 08:59:22;;;;;;;3.50;2.47;;;21.50;56.20;;;;;;5093356;28;20178;-68
2023/12/18 09:01:48;;;;;;;3.40;2.10;;;21.50;56.20;;;;;;5093872;28;20182;-68
2023/12/18 09:04:13;;;;;;;3.27;2.87;;;21.50;56.20;;;;;;5093877;28;20223;-68
2023/12/18 09:06:39;;;;;;;4.30;2.50;;;21.50;56.20;;;;;;5094053;28;20236;-69
2023/12/18 09:09:05;;;;;;;3.10;2.83;;;21.50;56.20;;;;;;5092651;28;20592;-68
2023/12/18 09:11:33;;;;;;;2.50;2.30;;;21.50;56.20;;;;;;5093863;28;20180;-68
2023/12/18 09:14:00;;;;;;;3.33;2.47;;;21.50;56.20;;;;;;5093615;28;20438;-67
2023/12/18 09:16:26;;;;;;;2.83;2.57;;;21.50;56.20;;;;;;5093628;28;20439;-69
2023/12/18 09:18:52;;;;;;;2.43;2.20;;;21.50;56.20;;;;;;5093744;28;20451;-67
2023/12/18 09:21:17;;;;;;;2.40;2.20;;;21.50;56.20;;;;;;5092145;28;20423;-69
2023/12/18 09:23:44;;;;;;;3.13;2.70;;;21.50;56.20;;;;;;5093770;28;20205;-67
2023/12/18 09:26:12;;;;;;;2.73;2.50;;;21.50;56.20;;;;;;5093694;28;20194;-68
2023/12/18 09:28:38;;;;;;;3.07;2.33;;;21.50;56.20;;;;;;5093288;28;20439;-67
2023/12/18 09:31:05;;;;;;;2.73;2.30;;;21.50;56.20;;;;;;5093504;28;20419;-68
2023/12/18 09:33:31;;;;;;;2.70;2.50;;;21.50;56.20;;;;;;5093661;28;20510;-68
2023/12/18 09:35:59;;;;;;;2.60;2.40;;;21.50;56.20;;;;;;5092134;28;20480;-68
2023/12/18 09:38:24;;;;;;;2.70;2.03;;;21.50;56.20;;;;;;5093522;28;20442;-67
2023/12/18 09:40:50;;;;;;;2.60;2.20;;;21.50;56.20;;;;;;5093864;28;20412;-68
2023/12/18 09:43:18;;;;;;;2.77;2.10;;;21.50;56.20;;;;;;5093330;28;20182;-67
2023/12/18 09:45:48;;;;;;;2.70;2.20;;;21.50;56.20;;;;;;5089442;28;20190;-68
2023/12/18 09:48:17;;;;;;;3.60;3.20;;;21.50;56.20;;;;;;5072657;28;20448;-67
2023/12/18 09:50:45;;;;;;;3.07;2.20;;;21.50;56.20;;;;;;5070946;28;20408;-69
2023/12/18 09:53:13;;;;;;;2.53;2.33;;;21.50;56.20;;;;;;5071024;28;20444;-68
2023/12/18 09:55:40;;;;;;;2.50;2.30;;;21.50;56.20;;;;;;5073077;28;20409;-68
2023/12/18 09:58:13;;;;;;;2.73;2.27;;;21.50;56.40;;;;;;5072508;28;20778;-68
2023/12/18 10:00:39;;;;;;;2.77;2.57;;;21.50;56.20;;;;;;5072449;28;20396;-68
2023/12/18 10:03:05;;;;;;;2.60;2.10;;;21.50;56.20;;;;;;5072975;28;20415;-69
2023/12/18 10:05:30;;;;;;;3.77;2.40;;;21.50;56.20;;;;;;5072567;28;20206;-68
2023/12/18 10:07:59;;;;;;;2.37;2.13;;;21.50;56.20;;;;;;5071198;28;20247;-68
2023/12/18 10:10:25;;;;;;;2.47;2.23;;;21.50;56.20;;;;;;5071600;28;20170;-67
2023/12/18 10:12:52;;;;;;;2.70;2.50;;;21.50;56.30;;;;;;5071736;28;20412;-68
2023/12/18 10:15:18;;;;;;;2.43;2.00;;;21.50;56.30;;;;;;5072148;28;20223;-69
2023/12/18 10:17:44;;;;;;;2.83;2.43;;;21.50;56.20;;;;;;5072275;28;20460;-68
2023/12/18 10:20:11;;;;;;;2.17;1.97;;;21.50;56.30;;;;;;5072044;28;20231;-68
2023/12/18 10:22:39;;;;;;;3.13;2.50;;;21.50;56.20;;;;;;5072555;28;20783;-68
2023/12/18 10:25:04;;;;;;;3.40;2.50;;;21.50;56.30;;;;;;5072300;28;20506;-68
2023/12/18 10:27:33;;;;;;;2.33;1.90;;;21.50;56.20;;;;;;5071861;28;20812;-68
2023/12/18 10:30:00;;;;;;;2.43;2.23;;;21.50;56.20;;;;;;5072835;28;20170;-68
2023/12/18 10:32:29;;;;;;;1.83;1.70;;;21.50;56.20;;;;;;5072045;28;20417;-68
2023/12/18 10:34:55;;;;;;;2.60;2.40;;;21.50;56.20;;;;;;5072484;28;20409;-68
2023/12/18 10:37:25;;;;;;;3.30;2.60;;;21.50;56.30;;;;;;5070829;28;20490;-68
2023/12/18 10:39:51;;;;;;;2.50;2.30;;;21.50;56.20;;;;;;5072012;28;20915;-68
2023/12/18 10:42:37;;;;;;;2.27;2.07;;;21.50;56.20;;;;;;5072315;28;20837;-68
2023/12/18 10:45:06;;;;;;;2.80;2.13;;;21.50;56.20;;;;;;5072161;28;20833;-68
2023/12/18 10:47:32;;;;;;;2.30;2.10;;;21.50;56.20;;;;;;5071668;28;21133;-68
2023/12/18 10:50:03;;;;;;;2.53;2.33;;;21.50;56.30;;;;;;5072231;28;20413;-68
2023/12/18 10:52:30;;;;;;;2.90;2.07;;;21.40;56.20;;;;;;5071863;28;20412;-69
2023/12/18 10:55:00;;;;;;;2.40;2.10;;;21.40;56.20;;;;;;5072011;28;20440;-67
2023/12/18 10:57:26;;;;;;;2.17;1.97;;;21.50;56.30;;;;;;5071887;28;20439;-67
2023/12/18 10:59:52;;;;;;;2.70;2.50;;;21.40;56.20;;;;;;5072193;28;20455;-68
2023/12/18 11:02:18;;;;;;;2.37;2.17;;;21.40;56.20;;;;;;5070820;28;20454;-69
2023/12/18 11:04:48;;;;;;;2.37;1.97;;;21.40;56.20;;;;;;5071927;28;20456;-67
2023/12/18 11:07:19;;;;;;;2.10;1.90;;;21.40;56.20;;;;;;5072099;28;20225;-66
2023/12/18 11:09:46;;;;;;;1.87;1.77;;;21.40;56.20;;;;;;5072211;28;20957;-68
2023/12/18 11:12:13;;;;;;;2.97;2.30;;;21.40;56.20;;;;;;5071727;28;20461;-68
2023/12/18 11:15:08;;;;;;;2.10;1.90;;;21.40;56.20;;;;;;5071517;28;20431;-67
2023/12/18 11:17:34;;;;;;;2.30;2.10;;;21.40;56.20;;;;;;5071444;28;20982;-68
2023/12/18 11:20:18;;;;;;;2.40;2.20;;;21.40;56.30;;;;;;5069945;28;20422;-68
2023/12/18 11:22:45;;;;;;;4.10;1.97;;;21.40;56.30;;;;;;5070916;28;20159;-68
2023/12/18 11:25:11;;;;;;;2.20;2.00;;;21.40;56.30;;;;;;5071544;28;20518;-68
2023/12/18 11:27:40;;;;;;;2.13;2.03;;;21.40;56.30;;;;;;5071113;28;20949;-68
2023/12/18 11:30:26;;;;;;;2.40;2.20;;;21.40;56.30;;;;;;5071286;28;20173;-66
2023/12/18 11:32:52;;;;;;;2.50;2.20;;;21.40;56.30;;;;;;5072122;28;20974;-67
2023/12/18 11:35:30;;;;;;;2.47;2.27;;;21.40;56.30;;;;;;5071626;28;20909;-68
2023/12/18 11:38:08;;;;;;;2.20;2.00;;;21.40;56.30;;;;;;5070981;28;20437;-68
2023/12/18 11:40:39;;;;;;;2.33;2.13;;;21.40;56.30;;;;;;5071386;28;20951;-68
2023/12/18 11:43:07;;;;;;;2.17;1.90;;;21.40;56.30;;;;;;5070862;28;20649;-68
2023/12/18 11:45:35;;;;;;;2.17;1.87;;;21.40;56.30;;;;;;5071065;28;20467;-69
2023/12/18 11:48:03;;;;;;;2.27;2.07;;;21.40;56.30;;;;;;5071344;28;20501;-69
2023/12/18 11:50:31;;;;;;;2.67;2.30;;;21.40;56.30;;;;;;5071056;28;20405;-68
2023/12/18 11:52:58;;;;;;;2.47;2.20;;;21.40;56.30;;;;;;5070944;28;20466;-68
2023/12/18 11:55:54;;;;;;;2.17;1.97;;;21.40;56.20;;;;;;5070961;28;20500;-67
2023/12/18 11:58:24;;;;;;;2.47;2.20;;;21.40;56.20;;;;;;5070435;28;20435;-68
2023/12/18 12:00:50;;;;;;;2.40;2.20;;;21.40;56.20;;;;;;5071083;28;20918;-69
2023/12/18 12:03:16;;;;;;;2.53;2.20;;;21.40;56.20;;;;;;5070752;28;20408;-68
2023/12/18 12:05:43;;;;;;;3.20;2.23;;;21.40;56.20;;;;;;5071298;28;20404;-68
2023/12/18 12:08:09;;;;;;;2.60;2.40;;;21.40;56.20;;;;;;5070779;28;20911;-67
2023/12/18 12:10:46;;;;;;;2.70;2.23;;;21.40;56.20;;;;;;5071122;28;20483;-69
2023/12/18 12:13:23;;;;;;;2.20;2.00;;;21.40;56.20;;;;;;5070803;28;20408;-69
2023/12/18 12:16:03;;;;;;;2.40;1.90;;;21.40;56.20;;;;;;5070651;28;20428;-68
2023/12/18 12:18:43;;;;;;;2.97;2.30;;;21.40;56.20;;;;;;5070602;28;20814;-67
2023/12/18 12:21:10;;;;;;;4.47;3.40;;;21.40;56.30;;;;;;5070926;28;20442;-67
2023/12/18 12:23:36;;;;;;;15.33;9.40;;;21.30;56.20;;;;;;5070845;28;20559;-68
2023/12/18 12:26:03;;;;;;;40.17;20.80;;;21.30;56.20;;;;;;5070567;28;20439;-68
2023/12/18 12:28:32;;;;;;;105.83;45.17;;;21.30;56.30;;;;;;5071605;28;20439;-67
2023/12/18 12:30:59;;;;;;;146.33;69.17;;;21.40;56.30;;;;;;5070307;28;20408;-67
2023/12/18 12:33:24;;;;;;;318.27;108.23;;;21.30;56.30;;;;;;5071721;28;20470;-68
2023/12/18 12:35:52;;;;;;;309.13;107.90;;;21.30;56.30;;;;;;5074034;28;20412;-68
2023/12/18 12:38:18;;;;;;;298.77;98.90;;;21.40;56.40;;;;;;5072544;28;20596;-68
2023/12/18 12:40:45;;;;;;;304.57;110.70;;;21.30;56.30;;;;;;5074332;28;20405;-68
2023/12/18 12:43:13;;;;;;;289.60;105.63;;;21.30;56.30;;;;;;5074142;28;20681;-67